TAF KSYM
KSYM 280538Z 2806/2906 24007G17KT P6SM FEW100 WS020/27035KT FM280700 24009KT P6SM FEW200 FM281400 28008KT P6SM SCT015 SCT040 FM281700 28009KT P6SM BKN250 FM290200 30006KT P6SM FEW250=
METAR KSYM
WC KSYM
WS KSYM
WV KSYM